createdAt,value
2017-01-21T00:00:21.543Z,20.44
2017-01-21T00:00:49.674Z,20.44
2017-01-21T00:01:17.723Z,20.42
2017-01-21T00:02:28.865Z,20.46
2017-01-21T00:02:57.025Z,20.49
2017-01-21T00:03:25.219Z,20.52
2017-01-21T00:03:53.243Z,20.52
2017-01-21T00:04:21.401Z,20.49
2017-01-21T00:04:49.675Z,20.5
2017-01-21T00:05:17.873Z,20.37
2017-01-21T00:05:46.132Z,20.41
2017-01-21T00:06:14.436Z,20.42
2017-01-21T00:06:42.749Z,20.39
2017-01-21T00:07:10.798Z,20.36
2017-01-21T00:08:22.138Z,20.46
2017-01-21T00:08:50.282Z,20.46
2017-01-21T00:09:18.571Z,20.52
2017-01-21T00:09:46.683Z,20.49
2017-01-21T00:10:14.943Z,20.48
2017-01-21T00:10:43.121Z,20.5
2017-01-21T00:11:11.329Z,20.55
2017-01-21T00:11:39.579Z,20.52
2017-01-21T00:12:07.883Z,20.53
2017-01-21T00:12:36.199Z,20.5
2017-01-21T00:13:04.341Z,20.53
2017-01-21T00:14:15.484Z,20.5
2017-01-21T00:14:43.547Z,20.44
2017-01-21T00:15:11.646Z,20.5
2017-01-21T00:15:39.756Z,20.48
2017-01-21T00:16:07.919Z,20.48
2017-01-21T00:16:36.100Z,20.5
2017-01-21T00:17:04.298Z,20.5
2017-01-21T00:17:32.367Z,20.53
2017-01-21T00:18:00.576Z,20.48
2017-01-21T00:18:28.793Z,20.46
2017-01-21T00:18:57.025Z,20.32
2017-01-21T00:20:08.260Z,20.41
2017-01-21T00:20:36.326Z,20.41
2017-01-21T00:21:04.239Z,20.34
2017-01-21T00:21:32.351Z,20.44
2017-01-21T00:22:00.612Z,20.41
2017-01-21T00:22:28.503Z,20.44
2017-01-21T00:22:56.614Z,20.44
2017-01-21T00:23:24.779Z,20.37
2017-01-21T00:23:53.084Z,20.5
2017-01-21T00:24:21.401Z,20.39
2017-01-21T00:24:49.547Z,20.44
2017-01-21T00:26:00.780Z,20.32
2017-01-21T00:26:28.941Z,20.39
2017-01-21T00:26:57.163Z,20.44
2017-01-21T00:27:25.281Z,20.49
2017-01-21T00:27:53.533Z,20.41
2017-01-21T00:28:21.716Z,20.49
2017-01-21T00:28:49.922Z,20.53
2017-01-21T00:29:18.085Z,20.49
2017-01-21T00:29:46.296Z,20.5
2017-01-21T00:30:14.609Z,20.53
2017-01-21T00:30:42.844Z,20.53
2017-01-21T00:31:54.080Z,20.53
2017-01-21T00:32:22.147Z,20.53
2017-01-21T00:32:50.337Z,20.48
2017-01-21T00:33:18.452Z,20.52
2017-01-21T00:33:46.637Z,20.52
2017-01-21T00:34:14.818Z,20.53
2017-01-21T00:34:43.021Z,20.48
2017-01-21T00:35:11.275Z,20.49
2017-01-21T00:35:39.576Z,20.5
2017-01-21T00:36:07.799Z,20.49
2017-01-21T00:36:35.945Z,20.49
2017-01-21T00:37:47.184Z,20.49
2017-01-21T00:38:15.437Z,20.49
2017-01-21T00:38:43.632Z,20.5
2017-01-21T00:39:11.657Z,20.52
2017-01-21T00:39:39.914Z,20.49
2017-01-21T00:40:08.185Z,20.52
2017-01-21T00:40:36.482Z,20.41
2017-01-21T00:41:04.649Z,20.44
2017-01-21T00:41:32.855Z,20.49
2017-01-21T00:42:01.075Z,20.49
2017-01-21T00:42:29.214Z,20.34
2017-01-21T00:43:40.543Z,20.39
2017-01-21T00:44:08.701Z,20.42
2017-01-21T00:44:36.888Z,20.44
2017-01-21T00:45:05.001Z,20.36
2017-01-21T00:45:33.164Z,20.39
2017-01-21T00:46:01.148Z,20.33
2017-01-21T00:46:29.445Z,20.48
2017-01-21T00:46:57.517Z,20.41
2017-01-21T00:47:25.725Z,20.39
2017-01-21T00:47:53.944Z,20.42
2017-01-21T00:48:21.895Z,20.41
2017-01-21T00:49:33.133Z,20.41
2017-01-21T00:50:01.381Z,20.42
2017-01-21T00:50:29.576Z,20.36
2017-01-21T00:50:57.601Z,20.39
2017-01-21T00:51:25.677Z,20.39
2017-01-21T00:51:53.852Z,20.44
2017-01-21T00:52:21.962Z,20.46
2017-01-21T00:52:50.218Z,20.44
2017-01-21T00:53:18.429Z,20.29
2017-01-21T00:53:46.647Z,20.27
2017-01-21T00:54:14.789Z,20.3
2017-01-21T00:55:26.114Z,20.29
2017-01-21T00:55:54.088Z,20.3
2017-01-21T00:56:22.389Z,20.32
2017-01-21T00:56:50.507Z,20.33
2017-01-21T00:57:18.761Z,20.32
2017-01-21T00:57:47.032Z,20.33
2017-01-21T00:58:15.361Z,20.32
2017-01-21T00:58:43.627Z,20.32
2017-01-21T00:59:11.845Z,20.29
2017-01-21T00:59:40.154Z,20.32
2017-01-21T01:00:08.302Z,20.29
2017-01-21T01:01:19.437Z,20.33
2017-01-21T01:01:47.695Z,20.37
2017-01-21T01:02:15.794Z,20.33
2017-01-21T01:02:43.910Z,20.3
2017-01-21T01:03:12.183Z,20.29
2017-01-21T01:03:40.177Z,20.37
2017-01-21T01:04:08.375Z,20.37
2017-01-21T01:04:36.575Z,20.44
2017-01-21T01:05:04.895Z,20.33
2017-01-21T01:05:33.116Z,20.34
2017-01-21T01:06:01.264Z,20.41
2017-01-21T01:07:12.217Z,20.37
2017-01-21T01:07:40.289Z,20.44
2017-01-21T01:08:08.490Z,20.46
2017-01-21T01:08:36.604Z,20.42
2017-01-21T01:09:04.861Z,20.37
2017-01-21T01:09:33.127Z,20.44
2017-01-21T01:10:01.328Z,20.46
2017-01-21T01:10:29.520Z,20.37
2017-01-21T01:10:57.739Z,20.44
2017-01-21T01:11:26.054Z,20.39
2017-01-21T01:11:54.190Z,20.39
2017-01-21T01:13:05.428Z,20.42
2017-01-21T01:13:33.841Z,20.39
2017-01-21T01:14:01.938Z,20.39
2017-01-21T01:14:29.969Z,20.42
2017-01-21T01:14:58.133Z,20.39
2017-01-21T01:15:26.403Z,20.37
2017-01-21T01:15:54.716Z,20.36
2017-01-21T01:16:22.787Z,20.39
2017-01-21T01:16:50.909Z,20.5
2017-01-21T01:17:19.230Z,20.34
2017-01-21T01:17:47.375Z,20.34
2017-01-21T01:18:58.522Z,20.39
2017-01-21T01:19:26.585Z,20.41
2017-01-21T01:19:54.777Z,20.37
2017-01-21T01:20:22.983Z,20.34
2017-01-21T01:20:51.155Z,20.46
2017-01-21T01:21:19.330Z,20.44
2017-01-21T01:21:47.534Z,20.37
2017-01-21T01:22:15.792Z,20.32
2017-01-21T01:22:43.931Z,20.3
2017-01-21T01:23:12.171Z,20.37
2017-01-21T01:23:40.231Z,20.36
2017-01-21T01:24:51.568Z,20.36
2017-01-21T01:25:19.725Z,20.33
2017-01-21T01:25:47.946Z,20.33
2017-01-21T01:26:16.062Z,20.3
2017-01-21T01:26:44.038Z,20.32
2017-01-21T01:27:12.219Z,20.32
2017-01-21T01:27:40.519Z,20.29
2017-01-21T01:28:08.684Z,20.32
2017-01-21T01:28:36.990Z,20.32
2017-01-21T01:29:05.213Z,20.36
2017-01-21T01:29:33.450Z,20.37
2017-01-21T01:30:44.777Z,20.26
2017-01-21T01:31:13.031Z,20.34
2017-01-21T01:31:41.133Z,20.27
2017-01-21T01:32:09.342Z,20.37
2017-01-21T01:32:37.601Z,20.29
2017-01-21T01:33:05.782Z,20.32
2017-01-21T01:33:34.082Z,20.32
2017-01-21T01:34:02.244Z,20.36
2017-01-21T01:34:30.548Z,20.34
2017-01-21T01:34:58.771Z,20.29
2017-01-21T01:35:26.913Z,20.32
2017-01-21T01:36:38.243Z,20.3
2017-01-21T01:37:06.504Z,20.3
2017-01-21T01:37:34.727Z,20.34
2017-01-21T01:38:02.724Z,20.32
2017-01-21T01:38:30.980Z,20.36
2017-01-21T01:38:59.067Z,20.3
2017-01-21T01:39:27.271Z,20.19
2017-01-21T01:39:55.527Z,20.23
2017-01-21T01:40:23.839Z,20.22
2017-01-21T01:40:52.061Z,20.33
2017-01-21T01:41:20.198Z,20.23
2017-01-21T01:42:31.349Z,20.25
2017-01-21T01:42:59.516Z,20.36
2017-01-21T01:43:27.714Z,20.33
2017-01-21T01:43:55.861Z,20.32
2017-01-21T01:44:23.937Z,20.18
2017-01-21T01:44:52.118Z,20.19
2017-01-21T01:45:20.143Z,20.3
2017-01-21T01:45:48.209Z,20.3
2017-01-21T01:46:16.442Z,20.29
2017-01-21T01:46:44.698Z,20.37
2017-01-21T01:47:12.836Z,20.3
2017-01-21T01:48:23.979Z,20.3
2017-01-21T01:48:52.160Z,20.3
2017-01-21T01:49:20.352Z,20.34
2017-01-21T01:49:48.376Z,20.3
2017-01-21T01:50:16.445Z,20.33
2017-01-21T01:50:44.716Z,20.3
2017-01-21T01:51:13.019Z,20.3
2017-01-21T01:51:41.176Z,20.3
2017-01-21T01:52:09.489Z,20.36
2017-01-21T01:52:37.621Z,20.36
2017-01-21T01:53:05.764Z,20.33
2017-01-21T01:54:16.999Z,20.29
2017-01-21T01:54:45.161Z,20.32
2017-01-21T01:55:13.170Z,20.36
2017-01-21T01:55:41.192Z,20.34
2017-01-21T01:56:09.361Z,20.33
2017-01-21T01:56:37.445Z,20.29
2017-01-21T01:57:05.657Z,20.37
2017-01-21T01:57:33.641Z,20.32
2017-01-21T01:58:01.946Z,20.32
2017-01-21T01:58:30.182Z,20.42
2017-01-21T01:58:58.232Z,20.27
2017-01-21T02:00:09.570Z,20.29
2017-01-21T02:00:37.818Z,20.34
2017-01-21T02:01:05.844Z,20.18
2017-01-21T02:01:34.048Z,20.3
2017-01-21T02:02:02.300Z,20.29
2017-01-21T02:02:30.489Z,20.22
2017-01-21T02:02:58.693Z,20.22
2017-01-21T02:03:26.872Z,20.25
2017-01-21T02:03:55.093Z,20.25
2017-01-21T02:04:23.315Z,20.23
2017-01-21T02:04:51.457Z,20.22
2017-01-21T02:06:02.544Z,20.18
2017-01-21T02:06:30.707Z,20.22
2017-01-21T02:06:58.900Z,20.22
2017-01-21T02:07:27.020Z,20.18
2017-01-21T02:07:55.277Z,20.17
2017-01-21T02:08:23.367Z,20.19
2017-01-21T02:08:51.672Z,20.15
2017-01-21T02:09:19.835Z,20.15
2017-01-21T02:09:48.139Z,20.12
2017-01-21T02:10:16.463Z,20.12
2017-01-21T02:10:44.615Z,20.18
2017-01-21T02:11:55.939Z,20.09
2017-01-21T02:12:24.012Z,20.17
2017-01-21T02:12:52.021Z,20.12
2017-01-21T02:13:20.133Z,20.14
2017-01-21T02:13:48.395Z,20.11
2017-01-21T02:14:16.596Z,20.11
2017-01-21T02:14:44.706Z,20.08
2017-01-21T02:15:12.983Z,20.11
2017-01-21T02:15:41.297Z,20.04
2017-01-21T02:16:09.513Z,20.09
2017-01-21T02:16:37.474Z,20.05
2017-01-21T02:17:48.807Z,20.08
2017-01-21T02:18:16.991Z,20.08
2017-01-21T02:18:45.187Z,20.11
2017-01-21T02:19:13.205Z,20.11
2017-01-21T02:19:41.373Z,20.09
2017-01-21T02:20:09.547Z,20.09
2017-01-21T02:20:37.853Z,20.09
2017-01-21T02:21:05.926Z,20.04
2017-01-21T02:21:34.135Z,20.08
2017-01-21T02:22:02.460Z,20.02
2017-01-21T02:22:30.507Z,20.08
2017-01-21T02:23:41.756Z,20.11
2017-01-21T02:24:09.906Z,20.14
2017-01-21T02:24:38.103Z,20.08
2017-01-21T02:25:06.127Z,20.07
2017-01-21T02:25:34.397Z,20.11
2017-01-21T02:26:02.383Z,20.09
2017-01-21T02:26:30.589Z,20.12
2017-01-21T02:26:58.858Z,20.07
2017-01-21T02:27:27.101Z,20.08
2017-01-21T02:27:55.416Z,20
2017-01-21T02:28:23.559Z,20.04
2017-01-21T02:29:34.710Z,20.05
2017-01-21T02:30:02.987Z,20.02
2017-01-21T02:30:31.286Z,20.05
2017-01-21T02:30:59.499Z,20
2017-01-21T02:31:27.754Z,20.02
2017-01-21T02:31:56.036Z,20.07
2017-01-21T02:32:24.239Z,20.02
2017-01-21T02:32:52.512Z,20.02
2017-01-21T02:33:20.819Z,20.09
2017-01-21T02:33:49.129Z,19.99
2017-01-21T02:34:17.285Z,20
2017-01-21T02:35:28.617Z,20.12
2017-01-21T02:35:56.773Z,20.04
2017-01-21T02:36:24.972Z,20.05
2017-01-21T02:36:53.176Z,20
2017-01-21T02:37:21.346Z,20.04
2017-01-21T02:37:49.528Z,20.09
2017-01-21T02:38:17.852Z,20.05
2017-01-21T02:38:46.012Z,20.08
2017-01-21T02:39:14.137Z,20.14
2017-01-21T02:39:42.449Z,20.15
2017-01-21T02:40:10.597Z,20.11
2017-01-21T02:41:21.932Z,20.08
2017-01-21T02:41:49.996Z,20.11
2017-01-21T02:42:18.125Z,20.11
2017-01-21T02:42:46.250Z,20.09
2017-01-21T02:43:14.321Z,20.09
2017-01-21T02:43:42.410Z,20.14
2017-01-21T02:44:10.611Z,20.08
2017-01-21T02:44:38.687Z,20.11
2017-01-21T02:45:06.997Z,20.09
2017-01-21T02:45:35.331Z,20.12
2017-01-21T02:46:03.568Z,20.11
2017-01-21T02:47:14.802Z,20.12
2017-01-21T02:47:42.960Z,20.11
2017-01-21T02:48:10.971Z,20.14
2017-01-21T02:48:39.004Z,20.14
2017-01-21T02:49:07.270Z,20.12
2017-01-21T02:49:35.549Z,20.05
2017-01-21T02:50:03.848Z,20.12
2017-01-21T02:50:32.111Z,20.09
2017-01-21T02:51:00.415Z,20.12
2017-01-21T02:51:28.638Z,20.14
2017-01-21T02:51:56.788Z,20.17
2017-01-21T02:53:07.937Z,20.12
2017-01-21T02:53:36.194Z,20.12
2017-01-21T02:54:04.203Z,20.15
2017-01-21T02:54:32.410Z,20.14
2017-01-21T02:55:00.664Z,20.15
2017-01-21T02:55:28.863Z,20.11
2017-01-21T02:55:56.974Z,20.12
2017-01-21T02:56:25.152Z,20.11
2017-01-21T02:56:53.470Z,20.12
2017-01-21T02:57:21.787Z,20.08
2017-01-21T02:57:50.022Z,20.15
2017-01-21T02:59:01.069Z,20.11
2017-01-21T02:59:29.317Z,20.17
2017-01-21T02:59:57.608Z,20.12
2017-01-21T03:00:25.624Z,20.15
2017-01-21T03:00:53.892Z,20.11
2017-01-21T03:01:22.070Z,20.14
2017-01-21T03:01:50.286Z,20.18
2017-01-21T03:02:18.450Z,20.08
2017-01-21T03:02:46.500Z,20.11
2017-01-21T03:03:14.818Z,20.17
2017-01-21T03:03:42.790Z,20.09
2017-01-21T03:04:53.930Z,20.08
2017-01-21T03:05:22.194Z,20.14
2017-01-21T03:05:50.484Z,20.08
2017-01-21T03:06:18.689Z,20.14
2017-01-21T03:06:46.857Z,20.12
2017-01-21T03:07:15.038Z,20.09
2017-01-21T03:07:43.245Z,20.12
2017-01-21T03:08:11.503Z,20.14
2017-01-21T03:08:39.716Z,20.05
2017-01-21T03:09:08.028Z,20
2017-01-21T03:09:36.205Z,20.17
2017-01-21T03:10:47.452Z,20.08
2017-01-21T03:11:15.618Z,20.17
2017-01-21T03:11:43.829Z,20.18
2017-01-21T03:12:11.857Z,20.17
2017-01-21T03:12:40.045Z,20.14
2017-01-21T03:13:08.313Z,20.08
2017-01-21T03:13:36.537Z,20.11
2017-01-21T03:14:04.619Z,20.11
2017-01-21T03:14:32.855Z,20.15
2017-01-21T03:15:00.983Z,20.22
2017-01-21T03:15:29.123Z,20.12
2017-01-21T03:16:40.297Z,20.19
2017-01-21T03:17:08.455Z,20.15
2017-01-21T03:17:36.653Z,20.12
2017-01-21T03:18:04.670Z,20.11
2017-01-21T03:18:32.638Z,20.19
2017-01-21T03:19:00.811Z,20.15
2017-01-21T03:19:29.017Z,20.15
2017-01-21T03:19:57.276Z,20.12
2017-01-21T03:20:25.489Z,20.15
2017-01-21T03:20:53.522Z,20.15
2017-01-21T03:21:21.568Z,20.19
2017-01-21T03:22:32.893Z,20.19
2017-01-21T03:23:00.960Z,20.23
2017-01-21T03:23:29.248Z,20.15
2017-01-21T03:23:57.358Z,20.15
2017-01-21T03:24:25.429Z,20.17
2017-01-21T03:24:53.415Z,20.23
2017-01-21T03:25:21.711Z,20.22
2017-01-21T03:25:49.781Z,20.25
2017-01-21T03:26:18.083Z,20.22
2017-01-21T03:26:46.206Z,20.17
2017-01-21T03:27:14.262Z,20.17
2017-01-21T03:28:25.491Z,20.19
2017-01-21T03:28:53.654Z,20.22
2017-01-21T03:29:21.755Z,20.15
2017-01-21T03:29:49.866Z,20.22
2017-01-21T03:30:17.843Z,20.23
2017-01-21T03:30:45.925Z,20.11
2017-01-21T03:31:14.225Z,20.25
2017-01-21T03:31:42.386Z,20.23
2017-01-21T03:32:10.498Z,20.25
2017-01-21T03:32:39.161Z,20.18
2017-01-21T03:33:07.299Z,20.18
2017-01-21T03:34:18.440Z,20.25
2017-01-21T03:34:46.501Z,20.23
2017-01-21T03:35:14.601Z,20.18
2017-01-21T03:35:42.710Z,20.23
2017-01-21T03:36:10.970Z,20.23
2017-01-21T03:36:39.244Z,20.15
2017-01-21T03:37:07.538Z,20.19
2017-01-21T03:37:35.794Z,20.22
2017-01-21T03:38:04.005Z,20.19
2017-01-21T03:38:32.227Z,20.19
2017-01-21T03:39:00.367Z,20.19
2017-01-21T03:40:11.414Z,20.19
2017-01-21T03:40:39.662Z,20.25
2017-01-21T03:41:07.953Z,20.27
2017-01-21T03:41:36.156Z,20.19
2017-01-21T03:42:04.424Z,20.3
2017-01-21T03:42:32.608Z,20.25
2017-01-21T03:43:00.904Z,20.3
2017-01-21T03:43:29.163Z,20.25
2017-01-21T03:43:57.465Z,20.23
2017-01-21T03:44:25.593Z,20.32
2017-01-21T03:44:53.823Z,20.26
2017-01-21T03:46:05.153Z,20.33
2017-01-21T03:46:33.314Z,20.32
2017-01-21T03:47:01.410Z,20.32
2017-01-21T03:47:29.613Z,20.26
2017-01-21T03:47:57.873Z,20.22
2017-01-21T03:48:26.056Z,20.3
2017-01-21T03:48:54.166Z,20.3
2017-01-21T03:49:22.331Z,20.32
2017-01-21T03:49:50.633Z,20.26
2017-01-21T03:50:18.857Z,20.19
2017-01-21T03:50:47.088Z,20.25
2017-01-21T03:51:58.415Z,20.29
2017-01-21T03:52:26.575Z,20.22
2017-01-21T03:52:54.768Z,20.19
2017-01-21T03:53:22.793Z,20.22
2017-01-21T03:53:50.959Z,20.25
2017-01-21T03:54:19.237Z,20.19
2017-01-21T03:54:47.530Z,20.3
2017-01-21T03:55:15.695Z,20.19
2017-01-21T03:55:43.809Z,20.25
2017-01-21T03:56:11.937Z,20.19
2017-01-21T03:56:39.892Z,20.22
2017-01-21T03:57:51.220Z,20.23
2017-01-21T03:58:19.284Z,20.19
2017-01-21T03:58:47.570Z,20.23
2017-01-21T03:59:15.683Z,20.25
2017-01-21T03:59:43.940Z,20.25
2017-01-21T04:00:12.118Z,20.22
2017-01-21T04:00:40.420Z,20.25
2017-01-21T04:01:08.588Z,20.22
2017-01-21T04:01:36.797Z,20.25
2017-01-21T04:02:05.105Z,20.25
2017-01-21T04:02:33.247Z,20.19
2017-01-21T04:03:44.294Z,20.22
2017-01-21T04:04:12.454Z,20.23
2017-01-21T04:04:40.647Z,20.17
2017-01-21T04:05:08.856Z,20.25
2017-01-21T04:05:37.110Z,20.18
2017-01-21T04:06:05.289Z,20.23
2017-01-21T04:06:33.399Z,20.15
2017-01-21T04:07:01.566Z,20.22
2017-01-21T04:07:29.782Z,20.19
2017-01-21T04:07:58.095Z,20.22
2017-01-21T04:08:26.231Z,20.19
2017-01-21T04:09:37.464Z,20.12
2017-01-21T04:10:05.625Z,20.12
2017-01-21T04:10:33.913Z,20.17
2017-01-21T04:11:02.026Z,20.17
2017-01-21T04:11:30.184Z,20.17
2017-01-21T04:11:58.359Z,20.12
2017-01-21T04:12:26.557Z,20.08
2017-01-21T04:12:54.813Z,20.12
2017-01-21T04:13:22.931Z,20.11
2017-01-21T04:13:51.241Z,20
2017-01-21T04:14:19.378Z,20.08
2017-01-21T04:15:30.609Z,20.08
2017-01-21T04:15:58.769Z,20.14
2017-01-21T04:16:26.866Z,20.07
2017-01-21T04:16:54.882Z,20.11
2017-01-21T04:17:23.043Z,20.08
2017-01-21T04:17:51.125Z,20.04
2017-01-21T04:18:19.326Z,20.05
2017-01-21T04:18:47.489Z,20.04
2017-01-21T04:19:15.608Z,20.11
2017-01-21T04:19:43.735Z,20.07
2017-01-21T04:20:11.880Z,20.05
2017-01-21T04:21:23.204Z,20.12
2017-01-21T04:21:51.453Z,20.07
2017-01-21T04:22:19.459Z,20.08
2017-01-21T04:22:47.662Z,20.04
2017-01-21T04:23:15.823Z,20.07
2017-01-21T04:23:43.906Z,20.04
2017-01-21T04:24:12.021Z,20.02
2017-01-21T04:24:40.186Z,20.05
2017-01-21T04:25:08.487Z,20.02
2017-01-21T04:25:36.611Z,20.07
2017-01-21T04:26:04.660Z,20.02
2017-01-21T04:27:15.889Z,20
2017-01-21T04:27:44.046Z,20.04
2017-01-21T04:28:12.242Z,20.02
2017-01-21T04:28:40.450Z,20.02
2017-01-21T04:29:08.611Z,20.04
2017-01-21T04:29:36.884Z,20.02
2017-01-21T04:30:04.993Z,20.04
2017-01-21T04:30:33.160Z,20.02
2017-01-21T04:31:01.462Z,19.99
2017-01-21T04:31:29.596Z,20
2017-01-21T04:31:57.644Z,19.96
2017-01-21T04:33:08.881Z,20.02
2017-01-21T04:33:37.041Z,19.97
2017-01-21T04:34:05.143Z,20.07
2017-01-21T04:34:33.166Z,20.04
2017-01-21T04:35:01.419Z,19.94
2017-01-21T04:35:29.413Z,20.02
2017-01-21T04:35:57.705Z,20.02
2017-01-21T04:36:25.870Z,19.99
2017-01-21T04:36:53.988Z,20.07
2017-01-21T04:37:22.116Z,20.02
2017-01-21T04:37:50.256Z,20
2017-01-21T04:39:01.305Z,20.07
2017-01-21T04:39:29.457Z,20.07
2017-01-21T04:39:57.554Z,20.02
2017-01-21T04:40:25.760Z,20.02
2017-01-21T04:40:54.017Z,20.04
2017-01-21T04:41:22.099Z,20.04
2017-01-21T04:41:50.304Z,20.05
2017-01-21T04:42:18.276Z,20.05
2017-01-21T04:42:46.483Z,20.04
2017-01-21T04:43:14.604Z,20
2017-01-21T04:43:42.554Z,19.97
2017-01-21T04:44:53.787Z,20.07
2017-01-21T04:45:21.851Z,20.05
2017-01-21T04:45:50.137Z,20.02
2017-01-21T04:46:18.342Z,20.02
2017-01-21T04:46:46.514Z,20.02
2017-01-21T04:47:14.692Z,20.04
2017-01-21T04:47:42.897Z,20
2017-01-21T04:48:10.967Z,20.05
2017-01-21T04:48:39.275Z,20
2017-01-21T04:49:07.400Z,20.04
2017-01-21T04:49:35.543Z,20
2017-01-21T04:50:46.776Z,19.97
2017-01-21T04:51:14.841Z,19.97
2017-01-21T04:51:43.038Z,19.99
2017-01-21T04:52:11.145Z,20
2017-01-21T04:52:39.403Z,19.97
2017-01-21T04:53:07.676Z,19.94
2017-01-21T04:53:35.784Z,20.04
2017-01-21T04:54:03.855Z,20.02
2017-01-21T04:54:32.162Z,20.04
2017-01-21T04:55:00.383Z,20
2017-01-21T04:55:28.519Z,20.04
2017-01-21T04:56:39.845Z,20.02
2017-01-21T04:57:08.100Z,20
2017-01-21T04:57:36.386Z,19.94
2017-01-21T04:58:04.597Z,19.94
2017-01-21T04:58:32.852Z,19.94
2017-01-21T04:59:00.935Z,19.99
2017-01-21T04:59:29.231Z,19.96
2017-01-21T04:59:57.208Z,19.94
2017-01-21T05:00:25.520Z,19.94
2017-01-21T05:00:53.816Z,20
2017-01-21T05:01:22.050Z,20.04
2017-01-21T05:02:33.279Z,19.99
2017-01-21T05:03:01.530Z,19.93
2017-01-21T05:03:29.815Z,19.92
2017-01-21T05:03:57.835Z,19.9
2017-01-21T05:04:26.095Z,19.97
2017-01-21T05:04:54.273Z,20.07
2017-01-21T05:05:22.568Z,19.94
2017-01-21T05:05:50.733Z,19.94
2017-01-21T05:06:18.942Z,20.07
2017-01-21T05:06:47.251Z,19.94
2017-01-21T05:07:15.481Z,20.05
2017-01-21T05:08:26.711Z,20.07
2017-01-21T05:08:54.893Z,20.05
2017-01-21T05:09:23.180Z,20.02
2017-01-21T05:09:51.385Z,20.02
2017-01-21T05:10:19.549Z,20.07
2017-01-21T05:10:47.822Z,20.04
2017-01-21T05:11:16.119Z,20.04
2017-01-21T05:11:44.281Z,20.02
2017-01-21T05:12:12.404Z,20.04
2017-01-21T05:12:40.718Z,20.02
2017-01-21T05:13:08.858Z,19.97
2017-01-21T05:14:20.004Z,19.97
2017-01-21T05:14:48.162Z,19.96
2017-01-21T05:15:16.259Z,19.99
2017-01-21T05:15:44.465Z,20.04
2017-01-21T05:16:12.630Z,20.02
2017-01-21T05:16:40.810Z,20.07
2017-01-21T05:17:09.013Z,19.99
2017-01-21T05:17:37.177Z,20
2017-01-21T05:18:05.301Z,20
2017-01-21T05:18:33.518Z,19.99
2017-01-21T05:19:01.757Z,20.04
2017-01-21T05:20:12.802Z,20.02
2017-01-21T05:20:40.865Z,20.04
2017-01-21T05:21:08.963Z,20
2017-01-21T05:21:36.983Z,20.04
2017-01-21T05:22:05.238Z,20.07
2017-01-21T05:22:33.512Z,20.02
2017-01-21T05:23:01.716Z,20.02
2017-01-21T05:23:29.813Z,20.08
2017-01-21T05:23:57.746Z,20.04
2017-01-21T05:24:25.774Z,20
2017-01-21T05:24:53.917Z,20.02
2017-01-21T05:26:05.153Z,20.02
2017-01-21T05:26:33.216Z,20.04
2017-01-21T05:27:01.413Z,19.97
2017-01-21T05:27:29.621Z,19.93
2017-01-21T05:27:57.879Z,19.97
2017-01-21T05:28:25.964Z,20.02
2017-01-21T05:28:54.168Z,19.97
2017-01-21T05:29:22.326Z,19.97
2017-01-21T05:29:50.633Z,20
2017-01-21T05:30:18.685Z,20.02
2017-01-21T05:30:46.915Z,20
2017-01-21T05:31:57.960Z,20.04
2017-01-21T05:32:26.120Z,20.02
2017-01-21T05:32:54.310Z,20.04
2017-01-21T05:33:22.424Z,20.02
2017-01-21T05:33:50.677Z,19.99
2017-01-21T05:34:18.858Z,20.07
2017-01-21T05:34:47.149Z,20
2017-01-21T05:35:15.037Z,20.04
2017-01-21T05:35:43.061Z,20.04
2017-01-21T05:36:11.373Z,20.04
2017-01-21T05:36:39.514Z,19.97
2017-01-21T05:37:50.564Z,20.05
2017-01-21T05:38:18.812Z,20.04
2017-01-21T05:38:46.910Z,19.99
2017-01-21T05:39:15.022Z,20.07
2017-01-21T05:39:43.188Z,20.02
2017-01-21T05:40:11.367Z,20.05
2017-01-21T05:40:39.663Z,19.99
2017-01-21T05:41:07.824Z,19.97
2017-01-21T05:41:36.032Z,19.97
2017-01-21T05:42:04.344Z,19.94
2017-01-21T05:42:32.480Z,19.99
2017-01-21T05:43:43.718Z,20
2017-01-21T05:44:11.876Z,19.96
2017-01-21T05:44:40.066Z,20.07
2017-01-21T05:45:08.278Z,19.97
2017-01-21T05:45:36.532Z,20.02
2017-01-21T05:46:04.710Z,20
2017-01-21T05:46:33.007Z,19.99
2017-01-21T05:47:01.075Z,20.07
2017-01-21T05:47:29.191Z,19.94
2017-01-21T05:47:57.412Z,20.02
2017-01-21T05:48:25.553Z,19.92
2017-01-21T05:49:36.786Z,19.99
2017-01-21T05:50:04.856Z,20
2017-01-21T05:50:33.046Z,20.04
2017-01-21T05:51:01.252Z,20.02
2017-01-21T05:51:29.416Z,19.96
2017-01-21T05:51:57.595Z,19.97
2017-01-21T05:52:25.708Z,19.96
2017-01-21T05:52:53.684Z,19.99
2017-01-21T05:53:21.889Z,19.99
2017-01-21T05:53:50.106Z,19.99
2017-01-21T05:54:18.153Z,19.99
2017-01-21T05:55:29.490Z,19.96
2017-01-21T05:55:57.739Z,19.97
2017-01-21T05:56:25.837Z,19.94
2017-01-21T05:56:53.953Z,19.92
2017-01-21T05:57:22.119Z,19.94
2017-01-21T05:57:50.392Z,19.99
2017-01-21T05:58:18.686Z,19.93
2017-01-21T05:58:46.663Z,19.94
2017-01-21T05:59:14.873Z,20.07
2017-01-21T05:59:43.201Z,19.92
2017-01-21T06:00:11.249Z,19.99
2017-01-21T06:01:22.577Z,20.07
2017-01-21T06:01:50.737Z,19.94
2017-01-21T06:02:19.023Z,19.97
2017-01-21T06:02:47.229Z,19.94
2017-01-21T06:03:15.482Z,19.96
2017-01-21T06:03:43.750Z,19.94
2017-01-21T06:04:11.865Z,19.94
2017-01-21T06:04:40.028Z,20.02
2017-01-21T06:05:08.149Z,20
2017-01-21T06:05:36.368Z,19.96
2017-01-21T06:06:04.605Z,19.94
2017-01-21T06:07:15.838Z,20.02
2017-01-21T06:07:43.815Z,19.97
2017-01-21T06:08:11.927Z,19.93
2017-01-21T06:08:40.038Z,19.94
2017-01-21T06:09:08.294Z,19.94
2017-01-21T06:09:36.470Z,19.96
2017-01-21T06:10:04.586Z,19.97
2017-01-21T06:10:32.652Z,19.96
2017-01-21T06:11:00.780Z,19.94
2017-01-21T06:11:28.994Z,20
2017-01-21T06:11:57.137Z,20.04
2017-01-21T06:13:08.372Z,20.02
2017-01-21T06:13:36.530Z,19.97
2017-01-21T06:14:04.722Z,20.02
2017-01-21T06:14:32.928Z,19.94
2017-01-21T06:15:01.000Z,19.99
2017-01-21T06:15:29.084Z,19.92
2017-01-21T06:15:57.103Z,19.94
2017-01-21T06:16:25.268Z,19.89
2017-01-21T06:16:53.476Z,19.93
2017-01-21T06:17:21.690Z,19.97
2017-01-21T06:17:49.919Z,19.92
2017-01-21T06:19:01.248Z,19.94
2017-01-21T06:19:29.407Z,19.94
2017-01-21T06:19:57.507Z,19.92
2017-01-21T06:20:25.621Z,19.94
2017-01-21T06:20:53.874Z,19.94
2017-01-21T06:21:22.053Z,19.9
2017-01-21T06:21:50.260Z,19.92
2017-01-21T06:22:18.515Z,19.99
2017-01-21T06:22:46.636Z,19.94
2017-01-21T06:23:14.763Z,19.93
2017-01-21T06:23:42.908Z,19.96
2017-01-21T06:24:54.144Z,19.94
2017-01-21T06:25:22.304Z,19.94
2017-01-21T06:25:50.491Z,19.92
2017-01-21T06:26:18.597Z,19.86
2017-01-21T06:26:46.855Z,19.9
2017-01-21T06:27:15.037Z,19.96
2017-01-21T06:27:43.244Z,19.94
2017-01-21T06:28:11.495Z,20
2017-01-21T06:28:39.616Z,19.93
2017-01-21T06:29:07.737Z,19.96
2017-01-21T06:29:35.976Z,19.94
2017-01-21T06:30:47.308Z,19.94
2017-01-21T06:31:15.374Z,19.96
2017-01-21T06:31:43.564Z,19.96
2017-01-21T06:32:11.680Z,20.02
2017-01-21T06:32:39.841Z,20.02
2017-01-21T06:33:07.923Z,19.97
2017-01-21T06:33:36.219Z,20.07
2017-01-21T06:34:04.384Z,20.07
2017-01-21T06:34:32.406Z,19.99
2017-01-21T06:35:00.720Z,19.99
2017-01-21T06:35:28.870Z,20.05
2017-01-21T06:36:40.103Z,19.93
2017-01-21T06:37:08.261Z,19.97
2017-01-21T06:37:36.363Z,19.93
2017-01-21T06:38:04.475Z,19.94
2017-01-21T06:38:32.636Z,19.94
2017-01-21T06:39:00.808Z,19.97
2017-01-21T06:39:29.014Z,19.94
2017-01-21T06:39:57.174Z,19.92
2017-01-21T06:40:25.199Z,19.94
2017-01-21T06:40:53.515Z,19.92
2017-01-21T06:41:21.747Z,19.94
2017-01-21T06:42:32.978Z,19.94
2017-01-21T06:43:01.227Z,19.96
2017-01-21T06:43:29.417Z,19.94
2017-01-21T06:43:57.627Z,19.94
2017-01-21T06:44:25.880Z,19.96
2017-01-21T06:44:53.873Z,19.96
2017-01-21T06:45:22.170Z,19.93
2017-01-21T06:45:50.238Z,19.97
2017-01-21T06:46:18.537Z,19.94
2017-01-21T06:46:46.756Z,19.96
2017-01-21T06:47:14.989Z,19.97
2017-01-21T06:48:26.224Z,19.96
2017-01-21T06:48:54.478Z,19.93
2017-01-21T06:49:22.668Z,19.94
2017-01-21T06:49:50.690Z,20.02
2017-01-21T06:50:18.665Z,19.99
2017-01-21T06:50:46.839Z,20
2017-01-21T06:51:15.099Z,20
2017-01-21T06:51:43.262Z,19.97
2017-01-21T06:52:11.567Z,19.96
2017-01-21T06:52:39.498Z,20
2017-01-21T06:53:07.540Z,19.97
2017-01-21T06:54:18.679Z,19.92
2017-01-21T06:54:46.933Z,19.97
2017-01-21T06:55:15.035Z,19.93
2017-01-21T06:55:43.244Z,19.99
2017-01-21T06:56:11.313Z,19.87